Time;durP1;ratioP1;P1;durP2;ratioP2;P2;SDS_P1;SDS_P2;PMS_P1;PMS_P2;Temp;Humidity;BMP_temperature;BMP_pressure;BME280_temperature;BME280_humidity;BME280_pressure;Samples;Min_cycle;Max_cycle;Signal;HPM_P1;HPM_P2
2022/01/16 00:04:16;;;;;;;9.02;7.90;;;22.00;29.80;;;;;;5049949;28;20031;-50
2022/01/16 00:06:43;;;;;;;9.00;7.90;;;21.90;29.80;;;;;;5046241;28;20025;-48
2022/01/16 00:09:10;;;;;;;9.32;8.32;;;22.00;29.80;;;;;;5050803;28;20469;-49
2022/01/16 00:11:37;;;;;;;8.60;7.72;;;21.90;29.80;;;;;;5046663;28;20049;-49
2022/01/16 00:14:04;;;;;;;8.82;7.85;;;21.90;29.80;;;;;;5048084;28;20051;-46
2022/01/16 00:16:30;;;;;;;8.75;7.85;;;21.90;29.80;;;;;;5045276;28;20355;-50
2022/01/16 00:18:57;;;;;;;8.70;7.80;;;21.90;29.80;;;;;;5044766;28;20025;-51
2022/01/16 00:21:26;;;;;;;8.95;7.90;;;21.90;29.80;;;;;;5049186;28;20048;-48
2022/01/16 00:23:53;;;;;;;8.77;7.22;;;21.90;29.80;;;;;;5047488;28;20036;-53
2022/01/16 00:26:21;;;;;;;9.55;8.57;;;21.90;29.80;;;;;;5046037;28;20413;-49
2022/01/16 00:28:49;;;;;;;9.18;8.02;;;21.90;29.80;;;;;;5048394;28;20033;-47
2022/01/16 00:31:16;;;;;;;8.60;7.70;;;21.90;29.80;;;;;;5046480;28;20117;-47
2022/01/16 00:33:44;;;;;;;8.65;7.65;;;21.90;29.80;;;;;;5046894;28;20104;-46
2022/01/16 00:36:11;;;;;;;8.68;7.82;;;21.90;29.80;;;;;;5045779;28;20036;-48
2022/01/16 00:38:44;;;;;;;8.52;7.63;;;21.80;29.80;;;;;;5048471;28;20033;-49
2022/01/16 00:41:12;;;;;;;8.85;7.95;;;21.80;29.80;;;;;;5046077;28;20059;-55
2022/01/16 00:43:39;;;;;;;10.57;7.93;;;21.80;29.80;;;;;;5048591;28;20119;-53
2022/01/16 00:46:05;;;;;;;8.80;7.80;;;21.80;29.80;;;;;;5045575;28;20157;-53
2022/01/16 00:48:31;;;;;;;9.38;8.05;;;21.80;29.80;;;;;;5048374;28;20124;-51
2022/01/16 00:50:56;;;;;;;8.80;7.90;;;21.80;29.80;;;;;;5029347;28;20028;-52
2022/01/16 00:53:25;;;;;;;8.85;7.75;;;21.80;29.80;;;;;;5047959;28;20029;-47
2022/01/16 00:55:51;;;;;;;9.02;8.13;;;21.80;29.80;;;;;;5046699;28;20036;-47
2022/01/16 00:58:17;;;;;;;9.20;7.80;;;21.80;29.80;;;;;;5047484;28;20041;-49
2022/01/16 01:00:42;;;;;;;7.78;6.97;;;21.80;29.80;;;;;;5029446;28;20348;-50
2022/01/16 01:03:08;;;;;;;8.68;7.40;;;21.80;29.80;;;;;;5050733;28;20032;-51
2022/01/16 01:05:35;;;;;;;8.80;7.72;;;21.80;29.80;;;;;;5044823;28;20025;-47
2022/01/16 01:08:02;;;;;;;8.82;7.85;;;21.80;29.80;;;;;;5030317;28;20337;-48
2022/01/16 01:10:32;;;;;;;10.52;8.05;;;21.70;29.80;;;;;;5045840;28;20043;-49
2022/01/16 01:13:21;;;;;;;9.18;7.50;;;21.80;29.80;;;;;;5044288;28;20025;-46
2022/01/16 01:15:50;;;;;;;9.25;8.05;;;21.80;29.90;;;;;;5047471;28;20040;-48
2022/01/16 01:18:18;;;;;;;7.97;7.18;;;21.70;29.80;;;;;;5043034;28;20037;-49
2022/01/16 01:20:46;;;;;;;8.90;8.00;;;21.70;29.80;;;;;;5047502;28;20442;-47
2022/01/16 01:23:13;;;;;;;7.88;7.07;;;21.70;29.80;;;;;;5045641;28;20074;-49
2022/01/16 01:25:39;;;;;;;8.25;7.32;;;21.70;29.90;;;;;;5043960;28;20025;-44
2022/01/16 01:28:07;;;;;;;8.50;7.63;;;21.70;29.80;;;;;;5046525;28;20025;-49
2022/01/16 01:30:33;;;;;;;9.68;8.10;;;21.70;29.80;;;;;;5046944;28;20037;-47
2022/01/16 01:32:59;;;;;;;8.52;7.63;;;21.70;29.80;;;;;;5049942;28;20517;-47
2022/01/16 01:35:25;;;;;;;8.35;7.22;;;21.60;29.80;;;;;;5043859;28;20034;-47
2022/01/16 01:37:52;;;;;;;9.50;7.53;;;21.70;29.90;;;;;;5048499;28;20040;-47
2022/01/16 01:40:22;;;;;;;8.48;7.38;;;21.70;29.90;;;;;;5046320;28;20448;-47
2022/01/16 01:43:02;;;;;;;9.05;7.80;;;21.60;29.80;;;;;;5047189;28;20021;-46
2022/01/16 01:51:14;;;;;;;8.68;7.45;;;21.60;29.80;;;;;;5048015;28;20332;-49
2022/01/16 01:53:41;;;;;;;7.40;6.60;;;21.60;29.90;;;;;;5045314;28;20448;-45
2022/01/16 01:56:10;;;;;;;7.82;6.75;;;21.60;29.90;;;;;;5046965;28;20024;-52
2022/01/16 01:58:38;;;;;;;6.70;6.00;;;21.60;29.90;;;;;;5043727;28;20041;-48
2022/01/16 02:01:05;;;;;;;7.65;6.53;;;21.60;29.90;;;;;;5045668;28;20045;-46
2022/01/16 02:03:42;;;;;;;8.13;6.97;;;21.60;29.90;;;;;;5044343;28;20104;-50
2022/01/16 02:06:28;;;;;;;7.47;6.65;;;21.60;29.90;;;;;;5047909;28;20041;-45
2022/01/16 02:08:58;;;;;;;7.45;6.47;;;21.60;29.80;;;;;;5047967;28;20052;-51
2022/01/16 02:11:27;;;;;;;7.28;6.40;;;21.50;29.90;;;;;;5043133;28;20025;-50
2022/01/16 02:14:03;;;;;;;7.20;6.28;;;21.50;29.80;;;;;;5044115;28;20036;-51
2022/01/16 02:30:58;;;;;;;;;;;21.40;29.80;;;;;;5047064;28;20399;-47
2022/01/16 02:36:01;;;;;;;7.05;6.03;;;21.40;29.90;;;;;;5043937;28;20109;-49
2022/01/16 02:38:27;;;;;;;7.03;5.82;;;21.40;29.90;;;;;;5050302;28;20056;-47
2022/01/16 02:41:01;;;;;;;7.18;6.07;;;21.40;29.90;;;;;;5042604;28;20024;-48
2022/01/16 02:43:32;;;;;;;6.93;5.70;;;21.40;29.90;;;;;;5045993;28;20029;-53
2022/01/16 02:46:36;;;;;;;7.93;5.68;;;21.40;29.90;;;;;;5009933;28;20359;-49
2022/01/16 02:48:50;;;;;;;7.55;6.38;;;21.40;29.90;;;;;;5042413;28;20127;-48
2022/01/16 02:51:19;;;;;;;6.88;5.70;;;21.40;29.90;;;;;;5044787;28;20036;-52
2022/01/16 02:53:48;;;;;;;6.68;5.97;;;21.40;29.90;;;;;;5025388;28;20041;-53
2022/01/16 02:56:16;;;;;;;7.38;6.07;;;21.40;29.90;;;;;;5043869;28;20076;-51
2022/01/16 02:58:42;;;;;;;7.38;5.63;;;21.40;29.90;;;;;;5046370;28;20120;-48
2022/01/16 03:01:09;;;;;;;6.80;5.93;;;21.40;29.90;;;;;;5042929;28;20028;-50
2022/01/16 03:03:35;;;;;;;7.28;6.32;;;21.40;29.90;;;;;;5044879;28;20052;-52
2022/01/16 03:06:01;;;;;;;8.38;6.35;;;21.40;29.90;;;;;;5045815;28;20067;-49
2022/01/16 03:08:27;;;;;;;7.63;6.38;;;21.40;29.90;;;;;;5046457;28;20021;-50
2022/01/16 03:13:27;;;;;;;6.95;5.78;;;21.40;29.90;;;;;;5043339;28;20083;-47
2022/01/16 03:15:55;;;;;;;6.90;5.70;;;21.40;30.00;;;;;;5026674;28;20363;-45
2022/01/16 03:23:31;;;;;;;7.03;6.32;;;21.40;30.00;;;;;;5042599;28;20039;-51
2022/01/16 03:25:57;;;;;;;6.50;5.80;;;21.30;30.00;;;;;;5043547;28;20064;-51
2022/01/16 03:28:25;;;;;;;7.22;6.10;;;21.30;30.00;;;;;;5024220;28;20056;-51
2022/01/16 03:30:55;;;;;;;6.97;6.05;;;21.30;30.00;;;;;;5047347;28;20623;-47
2022/01/16 03:33:22;;;;;;;7.35;6.43;;;21.30;30.00;;;;;;5040458;28;20375;-49
2022/01/16 03:35:48;;;;;;;6.90;6.20;;;21.30;30.00;;;;;;5042458;28;20029;-45
2022/01/16 03:38:14;;;;;;;7.10;6.03;;;21.30;30.00;;;;;;5025761;28;20017;-53
2022/01/16 03:40:40;;;;;;;6.80;5.65;;;21.30;30.00;;;;;;5043507;28;20068;-47
2022/01/16 03:43:13;;;;;;;6.70;5.55;;;21.30;30.00;;;;;;5042630;28;20044;-48
2022/01/16 03:45:44;;;;;;;6.50;5.70;;;21.30;30.00;;;;;;5044587;28;20037;-50
2022/01/16 03:48:11;;;;;;;6.18;5.47;;;21.30;30.00;;;;;;5042826;28;20321;-49
2022/01/16 03:50:37;;;;;;;6.78;5.85;;;21.30;30.00;;;;;;5042641;28;20487;-51
2022/01/16 03:53:04;;;;;;;6.53;5.82;;;21.30;30.00;;;;;;5042157;28;20021;-50
2022/01/16 03:55:32;;;;;;;9.75;6.63;;;21.30;30.00;;;;;;5045474;28;20467;-51
2022/01/16 03:57:58;;;;;;;7.60;6.55;;;21.30;30.00;;;;;;5043916;28;20049;-47
2022/01/16 04:00:25;;;;;;;7.43;5.88;;;21.30;30.00;;;;;;5046593;28;20032;-47
2022/01/16 04:02:50;;;;;;;6.57;5.88;;;21.30;30.00;;;;;;5044114;28;20017;-47
2022/01/16 04:05:16;;;;;;;6.43;5.63;;;21.30;30.00;;;;;;5046539;28;20094;-48
2022/01/16 04:07:42;;;;;;;7.88;6.20;;;21.30;30.00;;;;;;5041966;28;20041;-48
2022/01/16 04:10:09;;;;;;;8.30;6.43;;;21.30;30.10;;;;;;5042942;28;20123;-50
2022/01/16 04:12:37;;;;;;;8.07;6.53;;;21.20;30.00;;;;;;5044853;28;20114;-48
2022/01/16 04:17:37;;;;;;;7.68;6.43;;;21.30;30.10;;;;;;5042112;28;20162;-47
2022/01/16 04:20:03;;;;;;;7.82;5.80;;;21.20;30.10;;;;;;5043672;28;20108;-46
2022/01/16 04:22:29;;;;;;;7.00;6.07;;;21.20;30.10;;;;;;5043038;28;20095;-47
2022/01/16 04:24:55;;;;;;;7.43;6.38;;;21.20;30.20;;;;;;5046851;28;20444;-49
2022/01/16 04:27:20;;;;;;;8.00;6.28;;;21.20;30.10;;;;;;5041598;28;20418;-51
2022/01/16 04:29:46;;;;;;;7.85;6.57;;;21.20;30.20;;;;;;5042823;28;20048;-47
2022/01/16 04:32:13;;;;;;;8.10;6.28;;;21.20;30.20;;;;;;5045030;28;20131;-48
2022/01/16 04:34:39;;;;;;;7.40;5.97;;;21.20;30.20;;;;;;5045418;28;20492;-50
2022/01/16 04:37:05;;;;;;;8.07;6.63;;;21.20;30.20;;;;;;5043121;28;20298;-49
2022/01/16 04:39:33;;;;;;;7.95;6.45;;;21.20;30.20;;;;;;5043917;28;20025;-46
2022/01/16 04:44:45;;;;;;;7.53;5.82;;;21.20;30.20;;;;;;5046637;28;20043;-48
2022/01/16 04:47:11;;;;;;;8.65;6.82;;;21.20;30.20;;;;;;5046128;28;20033;-49
2022/01/16 04:49:38;;;;;;;7.65;6.45;;;21.20;30.20;;;;;;5048203;28;20033;-47
2022/01/16 04:52:04;;;;;;;7.10;6.28;;;21.20;30.20;;;;;;5026249;28;20364;-47
2022/01/16 04:54:31;;;;;;;7.65;6.60;;;21.20;30.20;;;;;;5047034;28;20726;-50
2022/01/16 04:56:58;;;;;;;7.40;6.60;;;21.20;30.20;;;;;;5042840;28;20033;-49
2022/01/16 04:59:23;;;;;;;7.13;5.97;;;21.20;30.20;;;;;;5045898;28;20033;-45
2022/01/16 05:01:49;;;;;;;7.15;5.80;;;21.20;30.20;;;;;;5044404;28;20031;-46
2022/01/16 05:04:15;;;;;;;6.97;6.00;;;21.20;30.20;;;;;;5044483;28;20036;-45
2022/01/16 05:06:42;;;;;;;8.07;6.93;;;21.10;30.20;;;;;;5045115;28;20376;-53
2022/01/16 05:09:07;;;;;;;6.50;5.65;;;21.20;30.20;;;;;;5047685;28;20044;-51
2022/01/16 05:11:33;;;;;;;8.00;6.25;;;21.10;30.20;;;;;;5044498;28;20029;-44
2022/01/16 05:16:38;;;;;;;7.00;6.20;;;21.10;30.20;;;;;;5045255;28;20101;-49
2022/01/16 05:19:10;;;;;;;7.18;6.30;;;21.10;30.20;;;;;;5051205;28;20116;-47
2022/01/16 05:21:37;;;;;;;8.70;6.85;;;21.10;30.20;;;;;;5043960;28;20381;-47
2022/01/16 05:24:07;;;;;;;7.97;6.55;;;21.10;30.30;;;;;;5044788;28;20082;-45
2022/01/16 05:26:34;;;;;;;7.47;6.43;;;21.10;30.30;;;;;;5045828;28;20348;-51
2022/01/16 05:29:01;;;;;;;7.65;6.65;;;21.10;30.30;;;;;;5047621;28;20037;-52
2022/01/16 05:31:27;;;;;;;6.88;6.13;;;21.10;30.30;;;;;;5045327;28;20053;-49
2022/01/16 05:33:52;;;;;;;7.28;6.13;;;21.10;30.30;;;;;;5044663;28;20467;-51
2022/01/16 05:36:22;;;;;;;7.70;6.43;;;21.10;30.30;;;;;;5026772;28;20456;-46
2022/01/16 05:38:49;;;;;;;7.90;6.38;;;21.10;30.30;;;;;;5043812;28;20104;-50
2022/01/16 05:41:18;;;;;;;8.02;6.47;;;21.10;30.30;;;;;;5046854;28;20036;-50
2022/01/16 05:43:44;;;;;;;7.35;6.15;;;21.10;30.30;;;;;;5046157;28;20033;-52
2022/01/16 05:46:10;;;;;;;7.25;6.30;;;21.00;30.30;;;;;;5042884;28;20038;-48
2022/01/16 05:48:36;;;;;;;8.60;7.00;;;21.00;30.30;;;;;;5030602;28;20548;-47
2022/01/16 05:51:02;;;;;;;8.70;6.75;;;21.10;30.40;;;;;;5029156;28;20025;-51
2022/01/16 05:53:27;;;;;;;8.10;6.95;;;21.10;30.40;;;;;;5046261;28;20029;-50
2022/01/16 05:55:53;;;;;;;7.25;6.00;;;21.00;30.30;;;;;;5043068;28;20021;-49
2022/01/16 05:58:19;;;;;;;8.07;6.82;;;21.00;30.30;;;;;;5045246;28;20144;-49
2022/01/16 06:00:47;;;;;;;7.68;6.43;;;21.00;30.30;;;;;;5043765;28;20029;-49
2022/01/16 06:03:13;;;;;;;8.25;6.63;;;21.10;30.40;;;;;;5046104;28;20053;-49
2022/01/16 06:05:39;;;;;;;8.20;7.05;;;21.00;30.30;;;;;;5043245;28;20035;-53
2022/01/16 06:08:11;;;;;;;9.20;7.00;;;21.00;30.40;;;;;;5046815;28;20104;-49
2022/01/16 06:10:38;;;;;;;7.75;6.43;;;21.00;30.40;;;;;;5042985;28;20059;-49
2022/01/16 06:13:05;;;;;;;9.07;7.15;;;21.00;30.40;;;;;;5047540;28;20090;-49
2022/01/16 06:15:31;;;;;;;8.23;7.05;;;21.00;30.40;;;;;;5041295;28;20479;-47
2022/01/16 06:17:58;;;;;;;7.88;6.78;;;21.00;30.30;;;;;;5047893;28;20028;-48
2022/01/16 06:20:24;;;;;;;9.80;7.35;;;21.10;30.40;;;;;;5045097;28;20337;-49
2022/01/16 06:22:53;;;;;;;8.95;7.38;;;21.00;30.30;;;;;;5027424;28;20021;-49
2022/01/16 06:25:19;;;;;;;8.68;7.28;;;21.00;30.30;;;;;;5042278;28;20051;-45
2022/01/16 06:27:45;;;;;;;8.88;7.60;;;21.00;30.30;;;;;;5047216;28;20108;-46
2022/01/16 06:30:11;;;;;;;8.63;7.07;;;21.00;30.30;;;;;;5041821;28;20171;-46
2022/01/16 06:32:37;;;;;;;10.40;8.43;;;21.00;30.30;;;;;;5046579;28;20021;-49
2022/01/16 06:35:04;;;;;;;9.25;7.65;;;21.00;30.30;;;;;;5048299;28;20100;-47
2022/01/16 06:37:30;;;;;;;8.75;7.38;;;21.00;30.30;;;;;;5045714;28;20034;-48
2022/01/16 06:39:56;;;;;;;9.52;7.35;;;21.00;30.30;;;;;;5048022;28;20104;-46
2022/01/16 06:42:21;;;;;;;10.15;7.72;;;21.00;30.30;;;;;;5043311;28;20026;-48
2022/01/16 06:44:47;;;;;;;9.90;8.35;;;21.00;30.30;;;;;;5046599;28;20069;-50
2022/01/16 06:47:13;;;;;;;10.90;7.82;;;21.00;30.30;;;;;;5044924;28;20029;-49
2022/01/16 06:49:39;;;;;;;9.13;7.50;;;21.00;30.30;;;;;;5047422;28;20136;-49
2022/01/16 06:52:05;;;;;;;10.60;8.00;;;21.00;30.30;;;;;;5043202;28;20025;-49
2022/01/16 06:54:31;;;;;;;8.90;7.22;;;21.00;30.30;;;;;;5045624;28;20022;-48
2022/01/16 06:56:56;;;;;;;10.38;8.55;;;21.00;30.30;;;;;;5045836;28;20051;-45
2022/01/16 06:59:22;;;;;;;9.65;8.07;;;21.00;30.30;;;;;;5046403;28;20055;-49
2022/01/16 07:01:49;;;;;;;9.05;7.78;;;21.00;30.30;;;;;;5043475;28;20055;-48
2022/01/16 07:04:14;;;;;;;9.38;8.05;;;21.00;30.30;;;;;;5042345;28;20452;-47
2022/01/16 07:06:40;;;;;;;10.20;8.40;;;21.00;30.30;;;;;;5043297;28;20041;-54
2022/01/16 07:09:06;;;;;;;9.98;7.78;;;21.00;30.30;;;;;;5047142;28;20025;-50
2022/01/16 07:11:32;;;;;;;9.23;7.57;;;21.00;30.40;;;;;;5042686;28;20486;-51
2022/01/16 07:13:57;;;;;;;9.23;7.97;;;21.00;30.40;;;;;;5046014;28;20049;-52
2022/01/16 07:16:23;;;;;;;9.38;8.32;;;20.90;30.40;;;;;;5025004;28;20033;-49
2022/01/16 07:18:49;;;;;;;10.50;7.38;;;20.90;30.40;;;;;;5043884;28;20033;-51
2022/01/16 07:21:15;;;;;;;9.80;7.85;;;20.90;30.40;;;;;;5045001;28;20421;-51
2022/01/16 07:23:45;;;;;;;8.75;7.38;;;21.00;30.40;;;;;;5044476;28;20078;-50
2022/01/16 07:26:14;;;;;;;9.35;7.50;;;21.00;30.40;;;;;;5046505;28;20029;-53
2022/01/16 07:28:40;;;;;;;8.90;6.93;;;21.00;30.40;;;;;;5044537;28;20024;-53
2022/01/16 07:31:06;;;;;;;7.75;6.88;;;21.00;30.40;;;;;;5053303;28;20020;-46
2022/01/16 07:33:32;;;;;;;10.10;7.63;;;21.00;30.40;;;;;;5041532;28;20022;-47
2022/01/16 07:35:58;;;;;;;8.20;6.47;;;21.00;30.40;;;;;;5044270;28;20484;-50
2022/01/16 07:38:24;;;;;;;7.97;7.18;;;21.00;30.40;;;;;;5023547;28;20104;-50
2022/01/16 07:40:49;;;;;;;7.80;6.82;;;21.00;30.40;;;;;;5043743;28;20029;-50
2022/01/16 07:43:15;;;;;;;7.75;6.93;;;21.00;30.40;;;;;;5043303;28;20131;-46
2022/01/16 07:45:41;;;;;;;7.90;6.50;;;21.00;31.00;;;;;;5040610;28;20037;-49
2022/01/16 07:48:07;;;;;;;10.60;7.18;;;21.00;30.50;;;;;;5045227;28;20031;-51
2022/01/16 07:50:34;;;;;;;7.97;6.95;;;21.00;30.60;;;;;;5023839;28;20440;-48
2022/01/16 07:53:00;;;;;;;9.13;7.20;;;20.90;30.60;;;;;;5043069;28;20129;-49
2022/01/16 07:55:26;;;;;;;8.55;6.90;;;20.90;30.80;;;;;;5042001;28;20064;-50
2022/01/16 07:57:53;;;;;;;8.57;6.43;;;20.90;31.00;;;;;;5043246;28;20144;-52
2022/01/16 08:00:20;;;;;;;7.90;6.43;;;20.90;31.20;;;;;;5042059;28;20025;-53
2022/01/16 08:02:53;;;;;;;8.90;6.57;;;21.00;31.40;;;;;;5040614;28;20021;-50
2022/01/16 08:05:20;;;;;;;7.57;5.97;;;21.10;31.40;;;;;;5043821;28;20048;-50
2022/01/16 08:07:46;;;;;;;7.88;6.60;;;21.20;31.50;;;;;;5044764;28;20445;-47
2022/01/16 08:10:13;;;;;;;8.63;6.90;;;21.30;31.50;;;;;;5040817;28;20446;-48
2022/01/16 08:12:39;;;;;;;7.40;6.28;;;21.30;31.60;;;;;;5040841;28;20022;-47
2022/01/16 08:15:10;;;;;;;6.78;6.07;;;21.50;31.70;;;;;;5052057;28;20409;-46
2022/01/16 08:17:37;;;;;;;7.22;6.18;;;21.60;31.60;;;;;;5051689;28;20045;-55
2022/01/16 08:20:05;;;;;;;6.53;5.68;;;21.60;31.50;;;;;;5057407;28;20090;-52
2022/01/16 08:22:31;;;;;;;8.00;6.55;;;21.70;31.40;;;;;;5057193;28;20036;-46
2022/01/16 08:24:59;;;;;;;7.35;6.40;;;21.80;31.30;;;;;;5056391;28;20158;-53
2022/01/16 08:27:26;;;;;;;7.57;6.05;;;21.90;31.20;;;;;;5056676;28;20025;-53
2022/01/16 08:29:51;;;;;;;7.60;5.50;;;22.00;31.20;;;;;;5057214;28;20032;-51
2022/01/16 08:32:17;;;;;;;6.47;5.82;;;22.10;31.10;;;;;;5057184;28;20029;-54
2022/01/16 08:34:43;;;;;;;8.63;5.72;;;22.20;31.00;;;;;;5057320;28;20037;-56
2022/01/16 08:37:09;;;;;;;8.27;6.22;;;22.30;30.90;;;;;;5039517;28;20085;-55
2022/01/16 08:39:34;;;;;;;6.28;5.43;;;22.40;30.90;;;;;;5057023;28;20108;-50
2022/01/16 08:42:01;;;;;;;5.68;5.03;;;22.40;30.80;;;;;;5056214;28;20032;-53
2022/01/16 08:44:27;;;;;;;6.43;5.30;;;22.50;30.80;;;;;;5056565;28;20021;-55
2022/01/16 08:46:53;;;;;;;6.60;5.38;;;22.60;30.80;;;;;;5056032;28;21096;-54
2022/01/16 08:49:19;;;;;;;6.28;4.78;;;22.60;30.80;;;;;;5056315;28;20041;-55
2022/01/16 08:51:45;;;;;;;6.40;5.25;;;22.70;30.70;;;;;;5056704;28;20450;-53
2022/01/16 08:54:11;;;;;;;5.75;5.10;;;22.80;30.70;;;;;;5039188;28;20061;-57
2022/01/16 08:56:37;;;;;;;5.85;5.03;;;22.90;30.60;;;;;;5056579;28;20073;-54
2022/01/16 08:59:03;;;;;;;6.07;5.07;;;22.90;30.50;;;;;;5056614;28;20039;-55
2022/01/16 09:01:29;;;;;;;5.70;5.05;;;23.00;30.50;;;;;;5056359;28;20024;-52
2022/01/16 09:03:54;;;;;;;6.07;5.15;;;23.10;30.40;;;;;;5056692;28;20029;-53
2022/01/16 09:06:21;;;;;;;5.25;4.60;;;23.20;30.40;;;;;;5038726;28;20416;-56
2022/01/16 09:08:48;;;;;;;5.00;4.50;;;23.20;30.20;;;;;;5056588;28;20127;-54
2022/01/16 09:11:14;;;;;;;5.72;4.35;;;23.30;30.20;;;;;;5056301;28;20383;-53
2022/01/16 09:13:41;;;;;;;6.03;4.40;;;23.30;30.10;;;;;;5055409;28;20028;-58
2022/01/16 09:16:07;;;;;;;5.03;4.38;;;23.40;30.10;;;;;;5054517;28;20412;-55
2022/01/16 09:18:34;;;;;;;5.50;4.50;;;23.50;30.00;;;;;;5055828;28;20040;-56
2022/01/16 09:21:01;;;;;;;4.95;4.03;;;23.50;30.00;;;;;;5049273;28;20025;-57
2022/01/16 09:23:28;;;;;;;6.05;4.25;;;23.60;30.00;;;;;;5051042;28;20052;-55
2022/01/16 09:25:54;;;;;;;4.82;4.25;;;23.60;29.90;;;;;;5053668;28;20090;-53
2022/01/16 09:28:20;;;;;;;4.80;4.07;;;23.60;29.90;;;;;;5053073;28;20017;-51
2022/01/16 09:30:46;;;;;;;4.60;4.05;;;23.70;29.90;;;;;;5052276;28;20037;-51
2022/01/16 09:33:12;;;;;;;4.05;2.95;;;23.70;29.90;;;;;;5056330;28;20052;-48
2022/01/16 09:35:38;;;;;;;3.10;2.40;;;23.80;29.90;;;;;;5056541;28;20078;-51
2022/01/16 09:38:06;;;;;;;3.53;2.83;;;23.70;29.80;;;;;;5056099;28;20116;-55
2022/01/16 09:40:33;;;;;;;3.53;3.05;;;23.60;29.80;;;;;;5050258;28;20456;-47
2022/01/16 09:43:01;;;;;;;3.70;3.17;;;23.60;29.80;;;;;;5046089;28;20049;-49
2022/01/16 09:45:27;;;;;;;5.00;4.05;;;23.50;29.90;;;;;;5044789;28;20079;-48
2022/01/16 09:47:52;;;;;;;9.15;5.70;;;23.50;30.00;;;;;;5054221;28;20063;-49
2022/01/16 09:50:24;;;;;;;11.68;7.35;;;23.60;30.30;;;;;;5048038;28;20124;-44
2022/01/16 09:52:51;;;;;;;14.48;8.43;;;23.70;30.60;;;;;;5050395;28;20617;-53
2022/01/16 09:55:18;;;;;;;15.85;8.88;;;23.70;30.90;;;;;;5049289;28;20029;-44
2022/01/16 09:57:44;;;;;;;15.35;9.07;;;23.80;32.00;;;;;;5005281;28;20046;-47
2022/01/16 10:00:16;;;;;;;13.70;7.70;;;23.80;31.70;;;;;;4997335;28;20076;-46
2022/01/16 10:02:44;;;;;;;10.70;7.22;;;23.90;31.90;;;;;;5001828;28;20080;-44
2022/01/16 10:05:34;;;;;;;11.10;6.68;;;23.90;32.00;;;;;;4997725;28;20445;-49
2022/01/16 10:08:08;;;;;;;8.00;6.07;;;23.90;32.00;;;;;;5009495;28;20022;-45
2022/01/16 10:10:42;;;;;;;11.35;6.95;;;23.90;32.00;;;;;;5000436;28;20061;-53
2022/01/16 10:13:37;;;;;;;10.20;6.97;;;23.90;32.00;;;;;;5008662;28;20452;-47
2022/01/16 10:16:02;;;;;;;;;;;23.90;32.40;;;;;;5006624;28;20454;-49
2022/01/16 10:18:39;;;;;;;10.93;7.70;;;23.80;32.60;;;;;;5012515;28;19915;-48
2022/01/16 10:21:07;;;;;;;11.35;7.72;;;23.80;33.00;;;;;;5016152;28;20040;-44
2022/01/16 10:23:44;;;;;;;9.02;6.82;;;23.70;32.90;;;;;;5015804;28;20018;-46
2022/01/16 10:26:21;;;;;;;8.70;6.22;;;23.70;32.80;;;;;;5015678;28;20030;-49
2022/01/16 10:28:48;;;;;;;9.35;6.25;;;23.80;32.70;;;;;;5022127;28;20053;-50
2022/01/16 10:31:27;;;;;;;9.15;6.90;;;23.70;32.50;;;;;;5020663;28;20025;-48
2022/01/16 10:33:55;;;;;;;10.98;6.82;;;23.80;32.60;;;;;;5020967;28;20147;-48
2022/01/16 10:36:38;;;;;;;10.27;7.35;;;23.70;32.90;;;;;;5031172;28;20440;-48
2022/01/16 10:39:09;;;;;;;11.97;7.67;;;23.70;33.30;;;;;;5025669;28;20091;-46
2022/01/16 10:41:36;;;;;;;11.30;7.20;;;23.70;33.70;;;;;;5021966;28;20359;-42
2022/01/16 10:44:02;;;;;;;8.50;4.75;;;23.60;33.70;;;;;;5031196;28;20037;-47
2022/01/16 10:46:28;;;;;;;7.15;4.97;;;23.60;33.10;;;;;;5026496;28;20032;-47
2022/01/16 10:49:18;;;;;;;4.50;3.55;;;23.60;32.80;;;;;;5017694;28;20061;-51
2022/01/16 10:52:06;;;;;;;6.68;4.50;;;23.50;32.50;;;;;;5021541;28;20086;-54
2022/01/16 10:54:41;;;;;;;5.65;4.13;;;23.50;32.30;;;;;;5019966;28;20092;-54
2022/01/16 10:57:37;;;;;;;7.03;5.28;;;23.50;32.20;;;;;;5030941;28;20352;-53
2022/01/16 11:00:09;;;;;;;7.63;5.68;;;23.50;32.20;;;;;;5038608;28;20450;-51
2022/01/16 11:02:35;;;;;;;5.90;5.18;;;23.40;32.20;;;;;;5066382;28;20420;-54
2022/01/16 11:05:06;;;;;;;6.63;5.20;;;23.40;32.20;;;;;;5064809;28;20032;-57
2022/01/16 11:07:32;;;;;;;8.20;5.55;;;23.40;32.20;;;;;;5055653;28;20025;-48
2022/01/16 11:09:58;;;;;;;7.35;5.50;;;23.40;32.20;;;;;;5054548;28;20475;-53
2022/01/16 11:12:24;;;;;;;5.28;4.20;;;23.40;32.10;;;;;;5066186;28;20174;-52
2022/01/16 11:14:50;;;;;;;6.25;5.00;;;23.40;32.00;;;;;;5043267;28;20029;-49
2022/01/16 11:17:16;;;;;;;6.05;4.88;;;23.50;32.00;;;;;;5062966;28;20351;-49
2022/01/16 11:19:42;;;;;;;6.03;4.75;;;23.50;31.90;;;;;;5066043;28;20127;-48
2022/01/16 11:22:11;;;;;;;6.40;5.32;;;23.50;31.90;;;;;;5061889;28;20199;-53
2022/01/16 11:25:00;;;;;;;7.68;5.93;;;23.50;31.80;;;;;;5064448;28;20033;-50
2022/01/16 11:27:26;;;;;;;8.00;5.40;;;23.50;31.70;;;;;;5059722;28;20032;-55
2022/01/16 11:29:52;;;;;;;6.60;5.45;;;23.50;31.70;;;;;;5042085;28;20432;-55
2022/01/16 11:32:20;;;;;;;8.13;6.47;;;23.40;31.50;;;;;;5062825;28;20024;-52
2022/01/16 11:34:46;;;;;;;9.52;6.97;;;23.40;31.50;;;;;;5068089;28;20020;-52
2022/01/16 11:37:12;;;;;;;8.43;5.75;;;23.40;31.40;;;;;;5067244;28;20074;-51
2022/01/16 11:39:39;;;;;;;8.13;6.57;;;23.40;31.40;;;;;;5064177;28;20024;-47
2022/01/16 11:42:20;;;;;;;8.10;6.13;;;23.40;31.30;;;;;;5065904;28;20017;-53
2022/01/16 11:44:52;;;;;;;7.38;5.80;;;23.40;31.30;;;;;;5052398;28;20116;-50
2022/01/16 11:47:18;;;;;;;8.98;6.43;;;23.40;31.30;;;;;;5037022;28;20401;-49
2022/01/16 11:49:44;;;;;;;8.35;6.57;;;23.40;31.30;;;;;;5055321;28;20056;-49
2022/01/16 11:52:15;;;;;;;8.70;6.90;;;23.40;31.20;;;;;;5064596;28;20304;-53
2022/01/16 11:54:43;;;;;;;8.23;6.68;;;23.40;31.10;;;;;;5054749;28;20033;-46
2022/01/16 11:57:28;;;;;;;9.05;7.25;;;23.40;31.10;;;;;;5054816;28;20084;-56
2022/01/16 12:00:11;;;;;;;8.32;6.28;;;23.40;31.10;;;;;;5052448;28;20387;-54
2022/01/16 12:02:45;;;;;;;9.38;6.97;;;23.40;31.10;;;;;;5054339;28;20025;-53
2022/01/16 12:05:19;;;;;;;9.32;7.10;;;23.40;31.10;;;;;;5059616;28;20103;-52
2022/01/16 12:07:47;;;;;;;;;;;23.40;31.00;;;;;;5054102;28;20336;-53
2022/01/16 12:10:45;;;;;;;9.23;7.35;;;23.40;31.00;;;;;;5054750;28;20347;-54
2022/01/16 12:13:49;;;;;;;9.98;7.18;;;23.40;30.90;;;;;;5051815;28;20025;-47
2022/01/16 12:16:40;;;;;;;9.48;7.25;;;23.40;30.90;;;;;;5053037;28;20045;-51
2022/01/16 12:19:36;;;;;;;10.10;7.55;;;23.40;30.90;;;;;;5042174;28;21724;-55
2022/01/16 12:22:07;;;;;;;10.02;7.38;;;23.40;30.80;;;;;;5051795;28;20020;-49
2022/01/16 12:24:36;;;;;;;9.63;7.68;;;23.40;30.80;;;;;;5054417;28;20033;-49
2022/01/16 12:27:27;;;;;;;10.57;8.32;;;23.40;30.80;;;;;;5054922;28;20037;-52
2022/01/16 12:30:09;;;;;;;11.02;7.95;;;23.50;30.70;;;;;;5054455;28;20048;-48
2022/01/16 12:32:55;;;;;;;10.57;8.00;;;23.50;30.70;;;;;;5053360;28;20037;-48
2022/01/16 12:35:39;;;;;;;11.02;8.23;;;23.50;30.70;;;;;;5050258;28;20029;-54
2022/01/16 12:38:19;;;;;;;11.38;8.63;;;23.50;30.60;;;;;;5053755;28;20032;-54
2022/01/16 12:40:48;;;;;;;11.40;8.35;;;23.50;30.70;;;;;;5052229;28;20029;-49
2022/01/16 12:44:00;;;;;;;9.63;8.13;;;23.40;30.60;;;;;;5053213;28;20017;-50
2022/01/16 12:46:03;;;;;;;10.90;8.50;;;23.40;30.60;;;;;;5044423;28;20823;-52
2022/01/16 12:48:31;;;;;;;11.85;8.93;;;23.40;30.60;;;;;;5051589;28;20035;-49
2022/01/16 12:51:03;;;;;;;12.80;9.15;;;23.40;30.60;;;;;;5050016;28;20090;-50
2022/01/16 12:53:34;;;;;;;10.45;7.78;;;23.40;30.60;;;;;;5055846;28;20355;-52
2022/01/16 12:56:17;;;;;;;10.73;8.77;;;23.40;30.60;;;;;;5055691;28;20071;-55
2022/01/16 12:58:44;;;;;;;11.13;7.88;;;23.40;30.60;;;;;;5053871;28;20079;-53
2022/01/16 13:01:10;;;;;;;10.98;8.15;;;23.40;30.80;;;;;;5055105;28;20440;-55
2022/01/16 13:03:37;;;;;;;10.00;7.55;;;23.40;30.90;;;;;;5041656;28;20036;-52
2022/01/16 13:06:19;;;;;;;8.98;7.30;;;23.40;31.10;;;;;;5039533;28;20037;-52
2022/01/16 13:09:07;;;;;;;9.82;7.63;;;23.50;31.20;;;;;;5043591;28;20028;-53
2022/01/16 13:11:50;;;;;;;11.25;7.13;;;23.50;31.30;;;;;;5044556;28;20091;-56
2022/01/16 13:14:25;;;;;;;8.57;6.95;;;23.50;31.40;;;;;;5034615;28;20433;-57
2022/01/16 13:16:56;;;;;;;9.85;6.70;;;23.60;31.50;;;;;;5045569;28;20447;-55
2022/01/16 13:19:25;;;;;;;8.60;6.80;;;23.60;31.70;;;;;;5062393;28;20021;-53
2022/01/16 13:22:11;;;;;;;7.75;6.57;;;23.70;31.80;;;;;;5060628;28;20059;-55
2022/01/16 13:24:47;;;;;;;9.82;6.75;;;23.70;31.70;;;;;;5049482;28;20040;-58
2022/01/16 13:27:26;;;;;;;7.68;6.32;;;23.80;31.70;;;;;;5057265;28;20121;-54
2022/01/16 13:29:54;;;;;;;8.27;6.38;;;23.90;31.70;;;;;;5056244;28;20040;-51
2022/01/16 13:32:47;;;;;;;8.18;6.65;;;23.90;31.60;;;;;;5040967;28;20072;-52
2022/01/16 13:35:28;;;;;;;10.10;5.80;;;24.00;31.50;;;;;;5065899;28;20108;-53
2022/01/16 13:38:15;;;;;;;9.80;6.18;;;24.00;31.50;;;;;;5063031;28;20036;-55